createdAt,value
2023-11-21T00:02:27.855Z,68.67
2023-11-21T00:04:54.932Z,68.84
2023-11-21T00:07:22.033Z,68.73
2023-11-21T00:09:49.155Z,68.78
2023-11-21T00:12:32.591Z,68.88
2023-11-21T00:14:59.592Z,68.61
2023-11-21T00:17:26.604Z,68.69
2023-11-21T00:19:53.619Z,68.31
2023-11-21T00:22:20.605Z,68.32
2023-11-21T00:24:48.452Z,68.37
2023-11-21T00:32:01.927Z,68.72
2023-11-21T00:34:29.217Z,68.31
2023-11-21T00:36:56.151Z,68.35
2023-11-21T00:39:22.977Z,68.65
2023-11-21T00:41:49.844Z,68.85
2023-11-21T00:44:16.944Z,69.35
2023-11-21T00:46:44.083Z,69.99
2023-11-21T00:49:10.768Z,69.83
2023-11-21T00:51:37.731Z,69.52
2023-11-21T00:54:04.948Z,69.68
2023-11-21T00:56:32.476Z,69.85
2023-11-21T00:58:59.223Z,70.26
2023-11-21T01:01:26.229Z,70.23
2023-11-21T01:03:54.619Z,70.25
2023-11-21T01:06:21.669Z,70.60
2023-11-21T01:08:49.514Z,70.74
2023-11-21T01:11:16.420Z,70.93
2023-11-21T01:13:45.434Z,71.21
2023-11-21T01:16:12.618Z,71.35
2023-11-21T01:18:40.206Z,71.46
2023-11-21T01:21:08.136Z,71.23
2023-11-21T01:23:34.916Z,71.27
2023-11-21T01:26:01.609Z,70.87
2023-11-21T01:28:29.013Z,71.09
2023-11-21T01:30:56.996Z,70.66
2023-11-21T01:33:25.693Z,70.50
2023-11-21T01:35:55.399Z,70.30
2023-11-21T01:38:22.728Z,70.24
2023-11-21T01:40:52.094Z,70.52
2023-11-21T01:43:19.044Z,70.53
2023-11-21T01:45:46.927Z,70.07
2023-11-21T01:48:13.880Z,70.34
2023-11-21T01:50:40.796Z,70.03
2023-11-21T01:53:07.832Z,70.00
2023-11-21T01:55:34.522Z,70.14
2023-11-21T01:58:02.237Z,69.86
2023-11-21T02:00:29.124Z,69.85
2023-11-21T02:02:59.958Z,70.01
2023-11-21T02:05:27.158Z,69.45
2023-11-21T02:07:54.081Z,69.76
2023-11-21T02:10:23.226Z,70.42
2023-11-21T02:12:53.011Z,70.53
2023-11-21T02:15:23.644Z,70.40
2023-11-21T02:17:51.840Z,70.18
2023-11-21T02:20:18.701Z,70.10
2023-11-21T02:22:58.522Z,70.28
2023-11-21T02:25:29.604Z,70.39
2023-11-21T02:27:57.303Z,69.90
2023-11-21T02:30:25.684Z,69.84
2023-11-21T02:32:57.601Z,69.51
2023-11-21T02:35:26.442Z,69.83
2023-11-21T02:37:53.899Z,69.91
2023-11-21T02:40:21.402Z,69.89
2023-11-21T02:42:48.613Z,70.01
2023-11-21T02:45:17.277Z,70.78
2023-11-21T02:47:46.305Z,70.24
2023-11-21T02:50:13.346Z,70.65
2023-11-21T02:52:42.806Z,70.34
2023-11-21T02:55:09.768Z,70.41
2023-11-21T02:57:36.647Z,70.62
2023-11-21T03:00:04.121Z,71.06
2023-11-21T03:02:30.986Z,70.88
2023-11-21T03:04:57.694Z,70.76
2023-11-21T03:07:25.603Z,70.60
2023-11-21T03:09:52.361Z,70.88
2023-11-21T03:12:20.174Z,71.12
2023-11-21T03:14:48.305Z,71.10
2023-11-21T03:17:16.148Z,71.09
2023-11-21T03:19:43.059Z,71.06
2023-11-21T03:22:10.476Z,71.10
2023-11-21T03:24:38.470Z,70.89
2023-11-21T03:27:06.240Z,71.45
2023-11-21T03:29:33.393Z,71.66
2023-11-21T03:32:02.644Z,72.32
2023-11-21T03:34:29.685Z,72.44
2023-11-21T03:36:56.681Z,72.94
2023-11-21T03:39:23.746Z,73.23
2023-11-21T03:41:52.428Z,73.32
2023-11-21T03:44:19.276Z,72.92
2023-11-21T03:46:46.313Z,72.82
2023-11-21T03:49:13.419Z,72.53
2023-11-21T03:51:40.472Z,72.53
2023-11-21T03:54:07.241Z,72.34
2023-11-21T03:56:34.041Z,71.98
2023-11-21T03:59:01.042Z,72.58
2023-11-21T04:01:27.907Z,72.39
2023-11-21T04:03:54.941Z,72.55
2023-11-21T04:06:22.162Z,72.69
2023-11-21T04:08:48.916Z,73.27
2023-11-21T04:11:16.360Z,73.44
2023-11-21T04:13:43.096Z,73.22
2023-11-21T04:16:10.109Z,73.42
2023-11-21T04:18:37.353Z,73.21
2023-11-21T04:21:08.429Z,73.34
2023-11-21T04:23:35.864Z,73.68
2023-11-21T04:26:02.655Z,73.67
2023-11-21T04:28:31.212Z,73.49
2023-11-21T04:30:58.121Z,74.49
2023-11-21T04:33:26.084Z,74.87
2023-11-21T04:35:52.979Z,75.45
2023-11-21T04:38:19.690Z,75.99
2023-11-21T04:40:46.378Z,76.47
2023-11-21T04:43:13.314Z,76.88
2023-11-21T04:45:41.776Z,76.72
2023-11-21T04:48:09.054Z,76.78
2023-11-21T04:50:35.893Z,77.52
2023-11-21T04:53:02.973Z,77.39
2023-11-21T04:55:29.854Z,77.30
2023-11-21T04:57:56.488Z,77.53
2023-11-21T05:00:23.274Z,77.56
2023-11-21T05:02:50.487Z,77.70
2023-11-21T05:05:17.735Z,77.95
2023-11-21T05:07:44.976Z,78.24
2023-11-21T05:10:12.766Z,78.87
2023-11-21T05:12:40.626Z,79.05
2023-11-21T05:15:10.265Z,78.78
2023-11-21T05:17:39.223Z,78.91
2023-11-21T05:20:09.194Z,79.02
2023-11-21T05:22:36.522Z,78.93
2023-11-21T05:25:05.588Z,78.26
2023-11-21T05:27:32.681Z,77.87
2023-11-21T05:29:59.748Z,77.70
2023-11-21T05:32:26.479Z,77.40
2023-11-21T05:34:53.623Z,77.48
2023-11-21T05:37:20.659Z,77.33
2023-11-21T05:39:47.501Z,77.18
2023-11-21T05:42:17.538Z,77.60
2023-11-21T05:44:44.336Z,77.69
2023-11-21T05:47:11.131Z,77.92
2023-11-21T05:49:38.235Z,77.86
2023-11-21T05:52:05.739Z,78.01
2023-11-21T05:54:32.915Z,77.86
2023-11-21T05:57:00.321Z,78.33
2023-11-21T05:59:27.383Z,77.93
2023-11-21T06:01:54.532Z,77.93
2023-11-21T06:04:24.843Z,78.26
2023-11-21T06:06:54.692Z,78.09
2023-11-21T06:09:21.736Z,77.31
2023-11-21T06:11:48.522Z,77.47
2023-11-21T06:14:18.545Z,77.97
2023-11-21T06:16:45.953Z,78.34
2023-11-21T06:19:13.022Z,78.52
2023-11-21T06:21:39.627Z,78.47
2023-11-21T06:24:07.739Z,78.66
2023-11-21T06:26:35.316Z,78.95
2023-11-21T06:29:03.670Z,79.03
2023-11-21T06:31:30.879Z,79.15
2023-11-21T06:34:00.492Z,79.28
2023-11-21T06:36:27.353Z,79.95
2023-11-21T06:38:54.201Z,80.09
2023-11-21T06:41:21.692Z,79.85
2023-11-21T06:43:48.589Z,79.28
2023-11-21T06:46:15.521Z,79.34
2023-11-21T06:48:45.814Z,79.19
2023-11-21T06:51:13.807Z,79.74
2023-11-21T06:53:40.725Z,79.87
2023-11-21T06:56:20.265Z,80.17
2023-11-21T06:58:47.171Z,80.39
2023-11-21T07:01:15.749Z,80.74
2023-11-21T07:03:43.070Z,80.97
2023-11-21T07:06:09.916Z,80.76
2023-11-21T07:08:37.552Z,80.72
2023-11-21T07:11:04.946Z,81.12
2023-11-21T07:13:32.143Z,81.58
2023-11-21T07:15:59.984Z,81.32
2023-11-21T07:18:26.983Z,81.48
2023-11-21T07:20:54.049Z,81.54
2023-11-21T07:23:23.163Z,81.48
2023-11-21T07:25:50.297Z,81.48
2023-11-21T07:28:17.429Z,81.57
2023-11-21T07:30:44.262Z,81.61
2023-11-21T07:33:11.408Z,81.35
2023-11-21T07:35:38.037Z,81.15
2023-11-21T07:38:05.943Z,81.04
2023-11-21T07:40:32.957Z,80.55
2023-11-21T07:42:59.967Z,80.43
2023-11-21T07:45:30.387Z,80.22
2023-11-21T07:47:57.536Z,80.05
2023-11-21T07:50:24.550Z,79.82
2023-11-21T07:52:51.525Z,79.84
2023-11-21T07:55:18.894Z,79.29
2023-11-21T07:57:45.626Z,79.66
2023-11-21T08:01:33.297Z,85.44
2023-11-21T08:04:05.422Z,82.36
2023-11-21T08:06:34.251Z,81.39
2023-11-21T08:09:01.918Z,80.79
2023-11-21T08:11:30.986Z,80.58
2023-11-21T08:14:00.544Z,80.57
2023-11-21T08:16:29.082Z,80.43
2023-11-21T08:18:56.796Z,80.50
2023-11-21T08:21:28.522Z,80.34
2023-11-21T08:23:56.486Z,80.47
2023-11-21T08:26:24.873Z,79.99
2023-11-21T08:28:58.043Z,79.92
2023-11-21T08:31:29.227Z,79.47
2023-11-21T08:33:57.232Z,79.11
2023-11-21T08:36:25.749Z,78.99
2023-11-21T08:38:53.660Z,79.11
2023-11-21T08:41:24.315Z,78.58
2023-11-21T08:43:52.830Z,78.69
2023-11-21T08:46:21.142Z,79.08
2023-11-21T08:48:49.409Z,78.67
2023-11-21T08:51:17.828Z,78.48
2023-11-21T08:53:45.530Z,77.87
2023-11-21T08:56:16.582Z,77.40
2023-11-21T08:58:44.605Z,77.27
2023-11-21T09:01:13.652Z,77.19
2023-11-21T09:03:42.970Z,76.76
2023-11-21T09:06:11.371Z,76.15
2023-11-21T09:08:39.306Z,76.07
2023-11-21T09:11:07.278Z,75.76
2023-11-21T09:13:36.129Z,75.67
2023-11-21T09:16:04.109Z,75.41
2023-11-21T09:18:32.305Z,75.15
2023-11-21T09:21:00.023Z,75.14
2023-11-21T09:23:27.951Z,74.53
2023-11-21T09:25:58.613Z,74.31
2023-11-21T09:28:28.039Z,74.44
2023-11-21T09:30:55.780Z,74.24
2023-11-21T09:33:26.245Z,73.77
2023-11-21T09:35:54.124Z,73.68
2023-11-21T09:38:22.054Z,73.83
2023-11-21T09:40:51.033Z,73.17
2023-11-21T09:43:19.733Z,73.02
2023-11-21T09:45:48.863Z,72.85
2023-11-21T09:48:17.888Z,72.53
2023-11-21T09:50:45.820Z,72.45
2023-11-21T09:53:22.812Z,72.13
2023-11-21T09:55:54.601Z,71.88
2023-11-21T09:58:26.552Z,71.85
2023-11-21T10:00:58.202Z,71.40
2023-11-21T10:03:26.143Z,71.11
2023-11-21T10:05:54.105Z,70.46
2023-11-21T10:08:21.600Z,70.47
2023-11-21T10:10:50.696Z,69.60
2023-11-21T10:13:21.064Z,69.70
2023-11-21T10:15:51.088Z,69.74
2023-11-21T10:18:18.927Z,69.98
2023-11-21T10:20:54.241Z,70.16
2023-11-21T10:23:24.273Z,69.34
2023-11-21T10:25:58.671Z,69.01
2023-11-21T10:28:28.321Z,68.97
2023-11-21T10:30:55.864Z,69.16
2023-11-21T10:33:32.645Z,69.27
2023-11-21T10:36:02.632Z,69.19
2023-11-21T10:38:31.864Z,69.00
2023-11-21T10:40:59.620Z,69.00
2023-11-21T10:43:28.271Z,68.78
2023-11-21T10:46:00.530Z,68.52
2023-11-21T10:48:28.509Z,68.45
2023-11-21T10:50:58.065Z,68.16
2023-11-21T10:53:26.242Z,68.15
2023-11-21T10:56:02.825Z,68.45
2023-11-21T10:58:31.012Z,68.37
2023-11-21T11:00:58.863Z,68.09
2023-11-21T11:03:26.657Z,68.00
2023-11-21T11:05:56.051Z,68.13
2023-11-21T11:08:28.612Z,67.78
2023-11-21T11:10:57.380Z,67.94
2023-11-21T11:13:25.700Z,67.92
2023-11-21T11:16:01.231Z,68.25
2023-11-21T11:18:30.876Z,67.68
2023-11-21T11:21:29.069Z,67.37
2023-11-21T11:24:22.342Z,66.83
2023-11-21T11:27:12.712Z,66.92
2023-11-21T11:30:02.512Z,66.97
2023-11-21T11:32:57.756Z,66.72
2023-11-21T11:35:27.550Z,66.29
2023-11-21T11:37:56.025Z,66.20
2023-11-21T11:40:26.137Z,66.25
2023-11-21T11:42:59.320Z,66.13
2023-11-21T11:45:29.978Z,65.98
2023-11-21T11:47:58.615Z,66.16
2023-11-21T11:50:27.840Z,65.98
2023-11-21T11:52:58.976Z,65.99
2023-11-21T11:55:26.782Z,65.86
2023-11-21T11:57:57.856Z,65.97
2023-11-21T12:00:30.165Z,65.75
2023-11-21T12:03:00.547Z,65.70
2023-11-21T12:05:29.299Z,65.72
2023-11-21T12:08:00.782Z,65.63
2023-11-21T12:10:29.733Z,65.65
2023-11-21T12:12:59.845Z,65.62
2023-11-21T12:15:30.311Z,65.65
2023-11-21T12:17:58.373Z,65.85
2023-11-21T12:20:26.629Z,65.76
2023-11-21T12:23:01.223Z,65.52
2023-11-21T12:25:36.499Z,65.62
2023-11-21T12:28:04.668Z,65.66
2023-11-21T12:30:34.527Z,65.19
2023-11-21T12:33:02.807Z,64.91
2023-11-21T12:35:38.003Z,65.23
2023-11-21T12:38:06.436Z,65.52
2023-11-21T12:40:34.466Z,65.52
2023-11-21T12:43:03.122Z,65.51
2023-11-21T12:45:32.670Z,65.42
2023-11-21T12:48:09.143Z,65.42
2023-11-21T12:50:38.948Z,65.49
2023-11-21T12:53:11.628Z,65.25
2023-11-21T12:55:39.952Z,65.24
2023-11-21T12:58:11.650Z,64.96
2023-11-21T13:00:47.777Z,65.18
2023-11-21T13:03:24.935Z,65.04
2023-11-21T13:05:55.150Z,64.83
2023-11-21T13:08:25.280Z,65.01
2023-11-21T13:10:56.873Z,65.09
2023-11-21T13:13:26.389Z,65.09
2023-11-21T13:15:58.353Z,65.06
2023-11-21T13:18:28.167Z,64.93
2023-11-21T13:20:59.366Z,64.99
2023-11-21T13:23:27.427Z,65.12
2023-11-21T13:26:02.229Z,65.10
2023-11-21T13:28:35.273Z,65.06
2023-11-21T13:31:22.935Z,65.27
2023-11-21T13:33:57.282Z,65.06
2023-11-21T13:36:26.661Z,65.26
2023-11-21T13:38:55.245Z,65.42
2023-11-21T13:41:32.477Z,65.40
2023-11-21T13:44:21.104Z,65.40
2023-11-21T13:46:48.950Z,65.22
2023-11-21T13:49:17.799Z,65.28
2023-11-21T13:51:47.221Z,65.24
2023-11-21T13:54:14.989Z,65.33
2023-11-21T13:56:43.909Z,65.23
2023-11-21T13:59:29.685Z,65.57
2023-11-21T14:02:14.106Z,65.32
2023-11-21T14:04:51.188Z,65.24
2023-11-21T14:07:28.079Z,65.37
2023-11-21T14:09:56.316Z,65.67
2023-11-21T14:12:24.678Z,65.78
2023-11-21T14:14:52.343Z,65.71
2023-11-21T14:17:20.198Z,65.80
2023-11-21T14:19:48.602Z,65.80
2023-11-21T14:22:16.392Z,65.84
2023-11-21T14:24:48.389Z,66.20
2023-11-21T14:27:19.164Z,66.24
2023-11-21T14:29:47.096Z,66.24
2023-11-21T14:32:15.885Z,66.17
2023-11-21T14:34:48.162Z,66.48
2023-11-21T14:37:19.024Z,66.41
2023-11-21T14:39:51.190Z,66.66
2023-11-21T14:42:26.226Z,66.73
2023-11-21T14:44:55.600Z,66.87
2023-11-21T14:47:28.676Z,66.97
2023-11-21T14:50:02.826Z,67.05
2023-11-21T14:52:37.170Z,66.85
2023-11-21T14:55:22.671Z,66.85
2023-11-21T14:57:53.351Z,67.01
2023-11-21T15:00:44.235Z,67.01
2023-11-21T15:03:19.666Z,67.26
2023-11-21T15:05:50.112Z,66.88
2023-11-21T15:08:31.799Z,66.78
2023-11-21T15:11:00.860Z,66.80
2023-11-21T15:13:29.881Z,66.94
2023-11-21T15:15:57.710Z,66.86
2023-11-21T15:18:26.061Z,67.01
2023-11-21T15:20:54.017Z,67.26
2023-11-21T15:23:21.949Z,67.25
2023-11-21T15:25:49.748Z,67.36
2023-11-21T15:28:18.646Z,67.40
2023-11-21T15:30:49.779Z,67.31
2023-11-21T15:33:17.607Z,67.24
2023-11-21T15:35:45.682Z,67.26
2023-11-21T15:38:15.299Z,67.43
2023-11-21T15:40:44.711Z,67.79
2023-11-21T15:43:12.549Z,67.54
2023-11-21T15:45:40.973Z,67.51
2023-11-21T15:48:10.934Z,67.69
2023-11-21T15:50:38.777Z,67.77
2023-11-21T15:53:06.846Z,67.66
2023-11-21T15:55:38.496Z,67.50
2023-11-21T15:58:08.052Z,67.33
2023-11-21T16:00:36.638Z,67.74
2023-11-21T16:03:04.516Z,68.07
2023-11-21T16:05:33.426Z,68.28
2023-11-21T16:08:02.139Z,68.26
2023-11-21T16:10:30.006Z,68.29
2023-11-21T16:12:58.039Z,68.42
2023-11-21T16:15:26.316Z,68.85
2023-11-21T16:17:53.954Z,68.53
2023-11-21T16:27:48.167Z,94.75
2023-11-21T16:30:16.138Z,81.50
2023-11-21T16:32:43.686Z,77.31
2023-11-21T16:35:13.446Z,76.94
2023-11-21T16:37:41.349Z,76.68
2023-11-21T16:40:10.477Z,76.25
2023-11-21T16:42:40.028Z,76.08
2023-11-21T16:45:09.558Z,75.75
2023-11-21T16:47:39.106Z,75.49
2023-11-21T16:50:07.572Z,75.53
2023-11-21T16:52:35.699Z,75.59
2023-11-21T16:55:03.707Z,75.66
2023-11-21T16:57:34.090Z,75.66
2023-11-21T17:00:02.089Z,76.04
2023-11-21T17:02:29.871Z,76.05
2023-11-21T17:04:57.781Z,76.12
2023-11-21T17:07:25.666Z,75.55
2023-11-21T17:09:53.469Z,75.51
2023-11-21T17:12:21.073Z,75.42
2023-11-21T17:14:50.606Z,75.90
2023-11-21T17:17:18.397Z,75.58
2023-11-21T17:19:46.317Z,75.37
2023-11-21T17:22:14.192Z,75.61
2023-11-21T17:24:43.821Z,75.38
2023-11-21T17:27:12.015Z,75.75
2023-11-21T17:29:40.163Z,75.12
2023-11-21T17:32:07.897Z,74.78
2023-11-21T17:34:35.897Z,74.98
2023-11-21T17:37:04.070Z,75.21
2023-11-21T17:39:31.606Z,75.88
2023-11-21T17:41:59.272Z,75.96
2023-11-21T17:44:26.829Z,76.21
2023-11-21T17:46:54.606Z,76.14
2023-11-21T17:49:22.209Z,76.25
2023-11-21T17:51:49.800Z,76.21
2023-11-21T17:54:17.317Z,76.08
2023-11-21T17:56:47.021Z,76.23
2023-11-21T17:59:17.709Z,75.72
2023-11-21T18:01:46.821Z,75.14
2023-11-21T18:04:15.509Z,74.97
2023-11-21T18:06:44.136Z,75.40
2023-11-21T18:09:13.149Z,75.49
2023-11-21T18:11:42.358Z,75.71
2023-11-21T18:14:11.754Z,75.47
2023-11-21T18:16:40.135Z,75.55
2023-11-21T18:19:08.052Z,75.26
2023-11-21T18:21:39.082Z,75.41
2023-11-21T18:24:07.751Z,75.43
2023-11-21T18:26:35.384Z,75.70
2023-11-21T18:29:03.048Z,75.23
2023-11-21T18:31:30.683Z,75.39
2023-11-21T18:33:58.253Z,75.36
2023-11-21T18:36:25.982Z,74.83
2023-11-21T18:38:54.053Z,74.82
2023-11-21T18:41:22.960Z,75.25
2023-11-21T18:43:51.145Z,75.37
2023-11-21T18:46:19.795Z,75.52
2023-11-21T18:48:49.093Z,75.88
2023-11-21T18:51:16.719Z,76.04
2023-11-21T18:53:44.472Z,76.37
2023-11-21T18:56:22.716Z,76.12
2023-11-21T18:58:54.206Z,76.03
2023-11-21T19:01:25.801Z,75.83
2023-11-21T19:03:54.272Z,76.09
2023-11-21T19:06:25.597Z,76.09
2023-11-21T19:08:53.423Z,75.89
2023-11-21T19:11:23.195Z,76.07
2023-11-21T19:13:51.116Z,75.69
2023-11-21T19:16:19.212Z,75.33
2023-11-21T19:18:46.818Z,75.23
2023-11-21T19:21:20.956Z,75.31
2023-11-21T19:23:49.949Z,75.54
2023-11-21T19:26:17.534Z,75.51
2023-11-21T19:28:45.401Z,75.37
2023-11-21T19:31:22.242Z,75.17
2023-11-21T19:33:50.759Z,75.11
2023-11-21T19:36:18.614Z,75.39
2023-11-21T19:38:46.364Z,75.34
2023-11-21T19:41:14.254Z,75.46
2023-11-21T19:43:42.405Z,75.30
2023-11-21T19:46:11.745Z,75.54
2023-11-21T19:48:41.111Z,75.77
2023-11-21T19:51:08.981Z,76.32
2023-11-21T19:53:39.410Z,76.73
2023-11-21T19:56:15.176Z,76.93
2023-11-21T19:58:43.086Z,76.94
2023-11-21T20:01:11.326Z,76.79
2023-11-21T20:03:40.190Z,77.27
2023-11-21T20:06:08.049Z,77.66
2023-11-21T20:08:36.000Z,77.25
2023-11-21T20:11:08.420Z,78.01
2023-11-21T20:13:36.397Z,79.35
2023-11-21T20:16:04.160Z,79.11
2023-11-21T20:18:32.028Z,79.21
2023-11-21T20:21:02.274Z,79.66
2023-11-21T20:23:33.096Z,80.69
2023-11-21T20:26:01.826Z,80.60
2023-11-21T20:28:29.501Z,81.45
2023-11-21T20:30:58.378Z,81.99
2023-11-21T20:33:26.203Z,79.97
2023-11-21T20:35:53.990Z,80.60
2023-11-21T20:38:23.606Z,82.37
2023-11-21T20:40:51.295Z,83.25
2023-11-21T20:43:18.814Z,83.28
2023-11-21T20:45:46.507Z,83.74
2023-11-21T20:48:15.299Z,84.27
2023-11-21T20:50:44.413Z,84.77
2023-11-21T20:53:12.681Z,85.10
2023-11-21T20:55:40.773Z,85.75
2023-11-21T20:58:09.680Z,84.64
2023-11-21T21:00:37.542Z,85.71
2023-11-21T21:03:06.579Z,86.71
2023-11-21T21:05:34.347Z,86.95
2023-11-21T21:08:01.881Z,86.32
2023-11-21T21:10:30.005Z,84.23
2023-11-21T21:12:57.739Z,85.20
2023-11-21T21:15:25.352Z,85.91
2023-11-21T21:17:52.893Z,86.54
2023-11-21T21:20:21.450Z,86.94
2023-11-21T21:22:48.982Z,86.84
2023-11-21T21:25:17.581Z,86.70
2023-11-21T21:27:45.290Z,86.52
2023-11-21T21:30:15.291Z,87.73
2023-11-21T21:32:42.814Z,88.47
2023-11-21T21:35:10.377Z,88.68
2023-11-21T21:37:38.093Z,88.91
2023-11-21T21:40:09.624Z,89.50
2023-11-21T21:42:37.328Z,89.46
2023-11-21T21:45:05.157Z,89.30
2023-11-21T21:47:32.634Z,89.89
2023-11-21T21:50:00.387Z,89.58
2023-11-21T21:52:35.523Z,89.98
2023-11-21T21:55:03.819Z,90.05
2023-11-21T21:57:31.223Z,89.77
2023-11-21T21:59:59.054Z,89.26
2023-11-21T22:02:26.868Z,89.38
2023-11-21T22:04:57.151Z,89.10
2023-11-21T22:07:24.591Z,89.19
2023-11-21T22:09:52.478Z,89.92
2023-11-21T22:12:22.958Z,90.49
2023-11-21T22:14:50.492Z,90.72
2023-11-21T22:17:18.098Z,91.03
2023-11-21T22:19:47.271Z,91.09
2023-11-21T22:22:14.867Z,91.01
2023-11-21T22:24:42.564Z,91.08
2023-11-21T22:27:10.205Z,90.80
2023-11-21T22:29:38.304Z,90.56
2023-11-21T22:32:06.300Z,90.94
2023-11-21T22:34:34.142Z,90.88
2023-11-21T22:37:01.778Z,91.03
2023-11-21T22:39:29.365Z,90.31
2023-11-21T22:41:57.686Z,90.08
2023-11-21T22:44:25.533Z,91.12
2023-11-21T22:46:53.515Z,91.63
2023-11-21T22:49:21.084Z,91.70
2023-11-21T22:51:48.911Z,92.02
2023-11-21T22:54:16.779Z,92.48
2023-11-21T22:56:44.308Z,92.53
2023-11-21T22:59:11.901Z,91.94
2023-11-21T23:01:39.573Z,92.97
2023-11-21T23:04:07.910Z,93.34
2023-11-21T23:06:35.765Z,93.91
2023-11-21T23:09:03.260Z,94.08
2023-11-21T23:11:30.694Z,93.84
2023-11-21T23:13:58.191Z,94.39
2023-11-21T23:16:25.684Z,94.27
2023-11-21T23:18:54.073Z,94.39
2023-11-21T23:21:21.541Z,94.19
2023-11-21T23:23:49.244Z,94.27
2023-11-21T23:26:17.555Z,93.31
2023-11-21T23:28:45.190Z,92.93
2023-11-21T23:31:12.732Z,93.07
2023-11-21T23:33:41.334Z,93.40
2023-11-21T23:36:09.128Z,93.85
2023-11-21T23:38:36.804Z,94.17
2023-11-21T23:41:04.528Z,94.64
2023-11-21T23:43:33.345Z,94.52
2023-11-21T23:46:00.821Z,94.92
2023-11-21T23:48:28.380Z,94.76
2023-11-21T23:50:56.494Z,94.53
2023-11-21T23:53:24.028Z,93.83
2023-11-21T23:55:53.818Z,94.85
2023-11-21T23:58:21.389Z,95.75
